McKenna, Washington
Current Conditions -  °F | °C
As of 1:58 AM on Friday 21 Nov 2014 (Local Time) from KGRF Reporting Station
Drizzle Drizzle  
Wind Chill: 42°   Ceiling: 8500
Heat Index: 44°   Visibility: 10mi
Dew Point: 44°   Wind: 5mph
Humidity: 99%   Direction: 160°SSE
Pressure: 29.86"   Gusts: NA
Location:  46.93°N, 122.56°W
Report Text: KGRF 210958Z AUTO 16004KT 10SM DZ SCT060 OVC085 07/07 A2986 RMK AO2 SLP116 P0000 T00680067 $
Loading
Personal Weather Stations






























Interactive Weather Map New forecast layout! Learn more

10-Day Weather Forecast

Advertisements
Track Severe Weather on mobile